sensor_id;sensor_type;location;lat;lon;timestamp;P1;durP1;ratioP1;P2;durP2;ratioP2
13720;SDS011;6932;51.438;5.470;2023-08-07T00:00:27;4.47;;;1.90;;
13720;SDS011;6932;51.438;5.470;2023-08-07T00:02:53;5.77;;;2.10;;
13720;SDS011;6932;51.438;5.470;2023-08-07T00:05:18;5.83;;;2.30;;
13720;SDS011;6932;51.438;5.470;2023-08-07T00:07:44;6.53;;;2.00;;
13720;SDS011;6932;51.438;5.470;2023-08-07T00:10:10;7.67;;;2.10;;
13720;SDS011;6932;51.438;5.470;2023-08-07T00:12:36;6.70;;;2.27;;
13720;SDS011;6932;51.438;5.470;2023-08-07T00:15:02;8.07;;;2.43;;
13720;SDS011;6932;51.438;5.470;2023-08-07T00:17:28;6.80;;;2.30;;
13720;SDS011;6932;51.438;5.470;2023-08-07T00:19:54;7.10;;;2.30;;
13720;SDS011;6932;51.438;5.470;2023-08-07T00:22:20;6.73;;;1.93;;
13720;SDS011;6932;51.438;5.470;2023-08-07T00:24:46;5.33;;;2.03;;
13720;SDS011;6932;51.438;5.470;2023-08-07T00:27:11;7.90;;;2.50;;
13720;SDS011;6932;51.438;5.470;2023-08-07T00:29:38;5.10;;;1.70;;
13720;SDS011;6932;51.438;5.470;2023-08-07T00:32:04;5.50;;;2.07;;
13720;SDS011;6932;51.438;5.470;2023-08-07T00:34:30;6.27;;;2.20;;
13720;SDS011;6932;51.438;5.470;2023-08-07T00:36:56;8.90;;;2.53;;
13720;SDS011;6932;51.438;5.470;2023-08-07T00:39:22;7.63;;;2.17;;
13720;SDS011;6932;51.438;5.470;2023-08-07T00:41:48;4.00;;;1.70;;
13720;SDS011;6932;51.438;5.470;2023-08-07T00:44:14;7.10;;;2.30;;
13720;SDS011;6932;51.438;5.470;2023-08-07T00:46:40;8.43;;;2.60;;
13720;SDS011;6932;51.438;5.470;2023-08-07T00:49:07;7.10;;;2.20;;
13720;SDS011;6932;51.438;5.470;2023-08-07T00:51:37;4.00;;;1.90;;
13720;SDS011;6932;51.438;5.470;2023-08-07T00:54:04;5.40;;;2.30;;
13720;SDS011;6932;51.438;5.470;2023-08-07T00:56:34;5.27;;;2.03;;
13720;SDS011;6932;51.438;5.470;2023-08-07T00:59:00;5.80;;;2.00;;
13720;SDS011;6932;51.438;5.470;2023-08-07T01:01:26;6.17;;;2.03;;
13720;SDS011;6932;51.438;5.470;2023-08-07T01:03:53;4.67;;;1.63;;
13720;SDS011;6932;51.438;5.470;2023-08-07T01:06:18;4.20;;;1.70;;
13720;SDS011;6932;51.438;5.470;2023-08-07T01:08:45;4.57;;;1.87;;
13720;SDS011;6932;51.438;5.470;2023-08-07T01:14:19;4.87;;;2.00;;
13720;SDS011;6932;51.438;5.470;2023-08-07T01:17:17;7.13;;;2.30;;
13720;SDS011;6932;51.438;5.470;2023-08-07T01:19:49;7.00;;;2.40;;
13720;SDS011;6932;51.438;5.470;2023-08-07T01:22:17;3.77;;;1.67;;
13720;SDS011;6932;51.438;5.470;2023-08-07T01:24:45;5.87;;;1.97;;
13720;SDS011;6932;51.438;5.470;2023-08-07T01:30:07;5.73;;;1.87;;
13720;SDS011;6932;51.438;5.470;2023-08-07T01:35:36;6.83;;;2.00;;
13720;SDS011;6932;51.438;5.470;2023-08-07T01:38:08;6.20;;;1.90;;
13720;SDS011;6932;51.438;5.470;2023-08-07T01:40:36;7.10;;;2.13;;
13720;SDS011;6932;51.438;5.470;2023-08-07T01:43:04;5.77;;;2.10;;
13720;SDS011;6932;51.438;5.470;2023-08-07T01:45:30;6.97;;;2.00;;
13720;SDS011;6932;51.438;5.470;2023-08-07T01:47:56;6.37;;;2.00;;
13720;SDS011;6932;51.438;5.470;2023-08-07T01:50:23;5.90;;;1.87;;
13720;SDS011;6932;51.438;5.470;2023-08-07T01:52:49;5.00;;;1.93;;
13720;SDS011;6932;51.438;5.470;2023-08-07T01:55:16;6.67;;;2.00;;
13720;SDS011;6932;51.438;5.470;2023-08-07T01:57:43;4.63;;;1.70;;
13720;SDS011;6932;51.438;5.470;2023-08-07T02:00:09;5.90;;;2.07;;
13720;SDS011;6932;51.438;5.470;2023-08-07T02:02:36;5.47;;;1.87;;
13720;SDS011;6932;51.438;5.470;2023-08-07T02:05:03;4.80;;;1.90;;
13720;SDS011;6932;51.438;5.470;2023-08-07T02:07:29;6.13;;;2.13;;
13720;SDS011;6932;51.438;5.470;2023-08-07T02:09:56;7.87;;;2.03;;
13720;SDS011;6932;51.438;5.470;2023-08-07T02:12:23;3.97;;;1.80;;
13720;SDS011;6932;51.438;5.470;2023-08-07T02:14:50;6.93;;;1.80;;
13720;SDS011;6932;51.438;5.470;2023-08-07T02:17:16;7.70;;;2.30;;
13720;SDS011;6932;51.438;5.470;2023-08-07T02:19:42;4.43;;;1.80;;
13720;SDS011;6932;51.438;5.470;2023-08-07T02:22:09;6.33;;;2.10;;
13720;SDS011;6932;51.438;5.470;2023-08-07T02:24:34;3.73;;;1.70;;
13720;SDS011;6932;51.438;5.470;2023-08-07T02:27:00;7.40;;;2.00;;
13720;SDS011;6932;51.438;5.470;2023-08-07T02:29:26;5.83;;;2.30;;
13720;SDS011;6932;51.438;5.470;2023-08-07T02:31:52;6.60;;;2.10;;
13720;SDS011;6932;51.438;5.470;2023-08-07T02:34:17;5.60;;;1.70;;
13720;SDS011;6932;51.438;5.470;2023-08-07T02:36:43;4.30;;;2.07;;
13720;SDS011;6932;51.438;5.470;2023-08-07T02:39:09;5.67;;;2.00;;
13720;SDS011;6932;51.438;5.470;2023-08-07T02:41:34;4.27;;;2.17;;
13720;SDS011;6932;51.438;5.470;2023-08-07T02:44:00;5.20;;;2.00;;
13720;SDS011;6932;51.438;5.470;2023-08-07T02:46:26;6.33;;;1.87;;
13720;SDS011;6932;51.438;5.470;2023-08-07T02:48:51;4.63;;;1.93;;
13720;SDS011;6932;51.438;5.470;2023-08-07T02:51:18;6.43;;;1.97;;
13720;SDS011;6932;51.438;5.470;2023-08-07T02:53:44;5.87;;;1.90;;
13720;SDS011;6932;51.438;5.470;2023-08-07T02:56:10;7.43;;;2.07;;
13720;SDS011;6932;51.438;5.470;2023-08-07T02:58:35;5.97;;;1.80;;
13720;SDS011;6932;51.438;5.470;2023-08-07T03:01:04;6.37;;;2.13;;
13720;SDS011;6932;51.438;5.470;2023-08-07T03:03:33;4.50;;;2.00;;
13720;SDS011;6932;51.438;5.470;2023-08-07T03:06:00;4.97;;;2.20;;
13720;SDS011;6932;51.438;5.470;2023-08-07T03:08:26;3.97;;;1.80;;
13720;SDS011;6932;51.438;5.470;2023-08-07T03:10:56;6.17;;;2.30;;
13720;SDS011;6932;51.438;5.470;2023-08-07T03:13:23;6.10;;;2.10;;
13720;SDS011;6932;51.438;5.470;2023-08-07T03:15:50;7.13;;;2.20;;
13720;SDS011;6932;51.438;5.470;2023-08-07T03:18:28;5.10;;;2.17;;
13720;SDS011;6932;51.438;5.470;2023-08-07T03:20:55;7.80;;;2.50;;
13720;SDS011;6932;51.438;5.470;2023-08-07T03:23:24;5.20;;;2.00;;
13720;SDS011;6932;51.438;5.470;2023-08-07T03:26:01;8.87;;;2.53;;
13720;SDS011;6932;51.438;5.470;2023-08-07T03:28:35;5.17;;;2.00;;
13720;SDS011;6932;51.438;5.470;2023-08-07T03:31:02;5.83;;;2.17;;
13720;SDS011;6932;51.438;5.470;2023-08-07T03:33:28;5.13;;;2.17;;
13720;SDS011;6932;51.438;5.470;2023-08-07T03:35:54;6.63;;;2.50;;
13720;SDS011;6932;51.438;5.470;2023-08-07T03:38:20;6.97;;;2.07;;
13720;SDS011;6932;51.438;5.470;2023-08-07T03:40:46;6.60;;;2.47;;
13720;SDS011;6932;51.438;5.470;2023-08-07T03:43:11;6.43;;;2.30;;
13720;SDS011;6932;51.438;5.470;2023-08-07T03:45:37;5.77;;;2.30;;
13720;SDS011;6932;51.438;5.470;2023-08-07T03:48:05;8.57;;;2.40;;
13720;SDS011;6932;51.438;5.470;2023-08-07T03:50:30;7.73;;;2.40;;
13720;SDS011;6932;51.438;5.470;2023-08-07T03:52:59;5.40;;;2.43;;
13720;SDS011;6932;51.438;5.470;2023-08-07T03:55:26;8.50;;;2.37;;
13720;SDS011;6932;51.438;5.470;2023-08-07T03:57:52;5.50;;;2.20;;
13720;SDS011;6932;51.438;5.470;2023-08-07T04:00:17;7.27;;;2.37;;
13720;SDS011;6932;51.438;5.470;2023-08-07T04:02:44;7.63;;;2.57;;
13720;SDS011;6932;51.438;5.470;2023-08-07T04:05:09;5.00;;;1.90;;
13720;SDS011;6932;51.438;5.470;2023-08-07T04:07:35;6.63;;;2.10;;
13720;SDS011;6932;51.438;5.470;2023-08-07T04:10:01;7.73;;;2.47;;
13720;SDS011;6932;51.438;5.470;2023-08-07T04:12:27;5.90;;;2.27;;
13720;SDS011;6932;51.438;5.470;2023-08-07T04:14:53;7.53;;;2.33;;
13720;SDS011;6932;51.438;5.470;2023-08-07T04:17:19;8.17;;;2.30;;
13720;SDS011;6932;51.438;5.470;2023-08-07T04:19:44;7.20;;;2.23;;
13720;SDS011;6932;51.438;5.470;2023-08-07T04:22:10;6.47;;;2.27;;
13720;SDS011;6932;51.438;5.470;2023-08-07T04:24:36;6.90;;;2.10;;
13720;SDS011;6932;51.438;5.470;2023-08-07T04:27:02;5.73;;;2.40;;
13720;SDS011;6932;51.438;5.470;2023-08-07T04:29:28;5.97;;;2.50;;
13720;SDS011;6932;51.438;5.470;2023-08-07T04:31:54;6.47;;;2.50;;
13720;SDS011;6932;51.438;5.470;2023-08-07T04:34:19;5.73;;;2.20;;
13720;SDS011;6932;51.438;5.470;2023-08-07T04:36:45;7.07;;;2.37;;
13720;SDS011;6932;51.438;5.470;2023-08-07T04:39:11;7.20;;;2.50;;
13720;SDS011;6932;51.438;5.470;2023-08-07T04:41:38;7.17;;;2.10;;
13720;SDS011;6932;51.438;5.470;2023-08-07T04:44:04;7.03;;;2.57;;
13720;SDS011;6932;51.438;5.470;2023-08-07T04:46:30;7.40;;;2.60;;
13720;SDS011;6932;51.438;5.470;2023-08-07T04:48:56;5.70;;;2.10;;
13720;SDS011;6932;51.438;5.470;2023-08-07T04:51:21;5.57;;;2.27;;
13720;SDS011;6932;51.438;5.470;2023-08-07T04:53:48;5.37;;;2.30;;
13720;SDS011;6932;51.438;5.470;2023-08-07T04:56:15;6.53;;;2.20;;
13720;SDS011;6932;51.438;5.470;2023-08-07T04:58:42;9.83;;;2.47;;
13720;SDS011;6932;51.438;5.470;2023-08-07T05:01:08;4.87;;;1.90;;
13720;SDS011;6932;51.438;5.470;2023-08-07T05:03:34;6.30;;;2.40;;
13720;SDS011;6932;51.438;5.470;2023-08-07T05:06:00;5.27;;;2.20;;
13720;SDS011;6932;51.438;5.470;2023-08-07T05:08:26;7.00;;;2.10;;
13720;SDS011;6932;51.438;5.470;2023-08-07T05:10:52;6.00;;;2.30;;
13720;SDS011;6932;51.438;5.470;2023-08-07T05:13:18;7.13;;;2.43;;
13720;SDS011;6932;51.438;5.470;2023-08-07T05:15:46;6.47;;;2.23;;
13720;SDS011;6932;51.438;5.470;2023-08-07T05:18:13;6.93;;;1.90;;
13720;SDS011;6932;51.438;5.470;2023-08-07T05:20:40;3.70;;;1.63;;
13720;SDS011;6932;51.438;5.470;2023-08-07T05:23:05;4.63;;;1.90;;
13720;SDS011;6932;51.438;5.470;2023-08-07T05:25:31;6.17;;;2.13;;
13720;SDS011;6932;51.438;5.470;2023-08-07T05:27:57;8.73;;;2.20;;
13720;SDS011;6932;51.438;5.470;2023-08-07T05:30:23;6.00;;;2.00;;
13720;SDS011;6932;51.438;5.470;2023-08-07T05:32:49;5.67;;;2.10;;
13720;SDS011;6932;51.438;5.470;2023-08-07T05:35:14;4.67;;;1.83;;
13720;SDS011;6932;51.438;5.470;2023-08-07T05:37:40;5.53;;;1.80;;
13720;SDS011;6932;51.438;5.470;2023-08-07T05:40:06;5.50;;;2.10;;
13720;SDS011;6932;51.438;5.470;2023-08-07T05:42:32;6.97;;;2.00;;
13720;SDS011;6932;51.438;5.470;2023-08-07T05:44:59;6.50;;;2.00;;
13720;SDS011;6932;51.438;5.470;2023-08-07T05:47:25;9.77;;;2.23;;
13720;SDS011;6932;51.438;5.470;2023-08-07T05:49:51;5.93;;;2.13;;
13720;SDS011;6932;51.438;5.470;2023-08-07T05:52:17;5.63;;;1.97;;
13720;SDS011;6932;51.438;5.470;2023-08-07T05:54:43;6.23;;;2.37;;
13720;SDS011;6932;51.438;5.470;2023-08-07T05:57:09;7.77;;;2.17;;
13720;SDS011;6932;51.438;5.470;2023-08-07T05:59:35;5.00;;;2.20;;
13720;SDS011;6932;51.438;5.470;2023-08-07T06:02:02;6.97;;;2.53;;
13720;SDS011;6932;51.438;5.470;2023-08-07T06:04:28;4.27;;;2.07;;
13720;SDS011;6932;51.438;5.470;2023-08-07T06:06:54;7.97;;;2.13;;
13720;SDS011;6932;51.438;5.470;2023-08-07T06:09:20;6.13;;;2.17;;
13720;SDS011;6932;51.438;5.470;2023-08-07T06:11:47;6.27;;;1.93;;
13720;SDS011;6932;51.438;5.470;2023-08-07T06:14:13;8.20;;;2.37;;
13720;SDS011;6932;51.438;5.470;2023-08-07T06:16:39;7.30;;;2.10;;
13720;SDS011;6932;51.438;5.470;2023-08-07T06:19:05;4.73;;;2.00;;
13720;SDS011;6932;51.438;5.470;2023-08-07T06:21:31;8.57;;;2.70;;
13720;SDS011;6932;51.438;5.470;2023-08-07T06:23:56;9.83;;;2.40;;
13720;SDS011;6932;51.438;5.470;2023-08-07T06:26:22;6.13;;;1.80;;
13720;SDS011;6932;51.438;5.470;2023-08-07T06:28:48;6.97;;;1.93;;
13720;SDS011;6932;51.438;5.470;2023-08-07T06:31:15;4.93;;;2.00;;
13720;SDS011;6932;51.438;5.470;2023-08-07T06:33:41;7.07;;;2.20;;
13720;SDS011;6932;51.438;5.470;2023-08-07T06:36:07;5.23;;;1.73;;
13720;SDS011;6932;51.438;5.470;2023-08-07T06:38:36;5.00;;;1.90;;
13720;SDS011;6932;51.438;5.470;2023-08-07T06:41:02;5.53;;;2.03;;
13720;SDS011;6932;51.438;5.470;2023-08-07T06:43:27;5.63;;;1.77;;
13720;SDS011;6932;51.438;5.470;2023-08-07T06:45:54;6.90;;;1.90;;
13720;SDS011;6932;51.438;5.470;2023-08-07T06:48:21;6.17;;;2.23;;
13720;SDS011;6932;51.438;5.470;2023-08-07T06:50:47;5.30;;;2.20;;
13720;SDS011;6932;51.438;5.470;2023-08-07T06:53:16;5.13;;;1.90;;
13720;SDS011;6932;51.438;5.470;2023-08-07T06:55:43;4.10;;;1.80;;
13720;SDS011;6932;51.438;5.470;2023-08-07T06:58:09;6.73;;;1.83;;
13720;SDS011;6932;51.438;5.470;2023-08-07T07:00:36;6.20;;;2.00;;
13720;SDS011;6932;51.438;5.470;2023-08-07T07:03:02;6.37;;;1.63;;
13720;SDS011;6932;51.438;5.470;2023-08-07T07:05:29;2.70;;;1.43;;
13720;SDS011;6932;51.438;5.470;2023-08-07T07:07:57;7.33;;;1.80;;
13720;SDS011;6932;51.438;5.470;2023-08-07T07:10:22;6.20;;;1.73;;
13720;SDS011;6932;51.438;5.470;2023-08-07T07:12:49;7.17;;;1.97;;
13720;SDS011;6932;51.438;5.470;2023-08-07T07:15:15;5.70;;;1.90;;
13720;SDS011;6932;51.438;5.470;2023-08-07T07:17:41;5.90;;;1.87;;
13720;SDS011;6932;51.438;5.470;2023-08-07T07:20:07;4.77;;;1.70;;
13720;SDS011;6932;51.438;5.470;2023-08-07T07:22:34;5.33;;;1.73;;
13720;SDS011;6932;51.438;5.470;2023-08-07T07:25:00;7.20;;;1.97;;
13720;SDS011;6932;51.438;5.470;2023-08-07T07:27:26;3.43;;;1.60;;
13720;SDS011;6932;51.438;5.470;2023-08-07T07:29:52;5.03;;;1.70;;
13720;SDS011;6932;51.438;5.470;2023-08-07T07:32:18;4.87;;;1.63;;
13720;SDS011;6932;51.438;5.470;2023-08-07T07:34:44;6.53;;;1.70;;
13720;SDS011;6932;51.438;5.470;2023-08-07T07:37:10;3.73;;;1.33;;
13720;SDS011;6932;51.438;5.470;2023-08-07T07:39:36;5.70;;;1.60;;
13720;SDS011;6932;51.438;5.470;2023-08-07T07:42:01;4.23;;;1.40;;
13720;SDS011;6932;51.438;5.470;2023-08-07T07:44:29;4.83;;;1.70;;
13720;SDS011;6932;51.438;5.470;2023-08-07T07:46:56;4.50;;;1.70;;
13720;SDS011;6932;51.438;5.470;2023-08-07T07:49:22;4.80;;;1.70;;
13720;SDS011;6932;51.438;5.470;2023-08-07T07:51:47;5.17;;;1.80;;
13720;SDS011;6932;51.438;5.470;2023-08-07T07:54:14;3.97;;;1.50;;
13720;SDS011;6932;51.438;5.470;2023-08-07T07:56:40;4.63;;;1.60;;
13720;SDS011;6932;51.438;5.470;2023-08-07T07:59:07;7.47;;;1.70;;
13720;SDS011;6932;51.438;5.470;2023-08-07T08:01:33;5.63;;;1.70;;
13720;SDS011;6932;51.438;5.470;2023-08-07T08:03:59;4.33;;;1.67;;
13720;SDS011;6932;51.438;5.470;2023-08-07T08:06:24;3.47;;;1.60;;
13720;SDS011;6932;51.438;5.470;2023-08-07T08:08:50;4.87;;;1.70;;
13720;SDS011;6932;51.438;5.470;2023-08-07T08:11:16;7.37;;;1.83;;
13720;SDS011;6932;51.438;5.470;2023-08-07T08:13:41;5.00;;;1.53;;
13720;SDS011;6932;51.438;5.470;2023-08-07T08:16:07;3.93;;;1.50;;
13720;SDS011;6932;51.438;5.470;2023-08-07T08:18:33;4.90;;;1.50;;
13720;SDS011;6932;51.438;5.470;2023-08-07T08:20:58;6.23;;;2.00;;
13720;SDS011;6932;51.438;5.470;2023-08-07T08:23:24;6.33;;;1.73;;
13720;SDS011;6932;51.438;5.470;2023-08-07T08:25:50;5.90;;;1.30;;
13720;SDS011;6932;51.438;5.470;2023-08-07T08:28:16;4.50;;;1.70;;
13720;SDS011;6932;51.438;5.470;2023-08-07T08:30:42;4.43;;;1.50;;
13720;SDS011;6932;51.438;5.470;2023-08-07T08:33:08;5.03;;;1.50;;
13720;SDS011;6932;51.438;5.470;2023-08-07T08:35:37;8.00;;;1.90;;
13720;SDS011;6932;51.438;5.470;2023-08-07T08:38:03;5.20;;;1.37;;
13720;SDS011;6932;51.438;5.470;2023-08-07T08:40:30;4.83;;;1.50;;
13720;SDS011;6932;51.438;5.470;2023-08-07T08:42:57;2.67;;;1.20;;
13720;SDS011;6932;51.438;5.470;2023-08-07T08:45:26;5.43;;;1.30;;
13720;SDS011;6932;51.438;5.470;2023-08-07T08:47:54;6.07;;;1.50;;
13720;SDS011;6932;51.438;5.470;2023-08-07T08:50:27;4.13;;;1.43;;
13720;SDS011;6932;51.438;5.470;2023-08-07T08:52:55;6.73;;;1.50;;
13720;SDS011;6932;51.438;5.470;2023-08-07T08:55:22;4.13;;;1.20;;
13720;SDS011;6932;51.438;5.470;2023-08-07T08:57:48;4.43;;;1.60;;
13720;SDS011;6932;51.438;5.470;2023-08-07T09:00:15;4.23;;;1.50;;
13720;SDS011;6932;51.438;5.470;2023-08-07T09:02:46;3.90;;;1.30;;
13720;SDS011;6932;51.438;5.470;2023-08-07T09:05:14;2.47;;;1.30;;
13720;SDS011;6932;51.438;5.470;2023-08-07T09:07:42;5.73;;;1.67;;
13720;SDS011;6932;51.438;5.470;2023-08-07T09:10:09;2.73;;;1.47;;
13720;SDS011;6932;51.438;5.470;2023-08-07T09:12:42;2.47;;;1.40;;
13720;SDS011;6932;51.438;5.470;2023-08-07T09:15:17;6.07;;;1.50;;
13720;SDS011;6932;51.438;5.470;2023-08-07T09:17:45;2.47;;;1.30;;
13720;SDS011;6932;51.438;5.470;2023-08-07T09:20:11;4.37;;;1.40;;
13720;SDS011;6932;51.438;5.470;2023-08-07T09:22:39;4.40;;;1.67;;
13720;SDS011;6932;51.438;5.470;2023-08-07T09:25:06;3.67;;;1.30;;
13720;SDS011;6932;51.438;5.470;2023-08-07T09:27:34;4.73;;;1.43;;
13720;SDS011;6932;51.438;5.470;2023-08-07T09:30:03;4.63;;;1.70;;
13720;SDS011;6932;51.438;5.470;2023-08-07T09:32:33;3.47;;;1.50;;
13720;SDS011;6932;51.438;5.470;2023-08-07T09:34:59;2.80;;;1.23;;
13720;SDS011;6932;51.438;5.470;2023-08-07T09:37:29;4.63;;;1.63;;
13720;SDS011;6932;51.438;5.470;2023-08-07T09:39:55;4.53;;;1.60;;
13720;SDS011;6932;51.438;5.470;2023-08-07T09:42:22;3.57;;;1.50;;
13720;SDS011;6932;51.438;5.470;2023-08-07T09:44:47;4.67;;;1.63;;
13720;SDS011;6932;51.438;5.470;2023-08-07T09:47:17;3.60;;;1.57;;
13720;SDS011;6932;51.438;5.470;2023-08-07T09:49:45;2.90;;;1.57;;
13720;SDS011;6932;51.438;5.470;2023-08-07T09:52:11;3.83;;;1.37;;
13720;SDS011;6932;51.438;5.470;2023-08-07T09:54:40;5.23;;;1.70;;
13720;SDS011;6932;51.438;5.470;2023-08-07T09:57:07;2.70;;;1.43;;
13720;SDS011;6932;51.438;5.470;2023-08-07T09:59:33;1.67;;;1.30;;
13720;SDS011;6932;51.438;5.470;2023-08-07T10:02:00;3.83;;;1.50;;
13720;SDS011;6932;51.438;5.470;2023-08-07T10:04:28;3.90;;;1.53;;
13720;SDS011;6932;51.438;5.470;2023-08-07T10:06:55;2.87;;;1.60;;
13720;SDS011;6932;51.438;5.470;2023-08-07T10:09:22;4.73;;;1.53;;
13720;SDS011;6932;51.438;5.470;2023-08-07T10:11:51;2.57;;;1.30;;
13720;SDS011;6932;51.438;5.470;2023-08-07T10:14:17;2.90;;;1.40;;
13720;SDS011;6932;51.438;5.470;2023-08-07T10:16:43;4.00;;;1.50;;
13720;SDS011;6932;51.438;5.470;2023-08-07T10:19:11;5.07;;;1.80;;
13720;SDS011;6932;51.438;5.470;2023-08-07T10:21:40;2.97;;;1.40;;
13720;SDS011;6932;51.438;5.470;2023-08-07T10:24:08;5.13;;;1.63;;
13720;SDS011;6932;51.438;5.470;2023-08-07T10:26:36;2.17;;;1.40;;
13720;SDS011;6932;51.438;5.470;2023-08-07T10:29:09;4.03;;;1.50;;
13720;SDS011;6932;51.438;5.470;2023-08-07T10:31:39;2.40;;;1.40;;
13720;SDS011;6932;51.438;5.470;2023-08-07T10:34:08;2.40;;;1.50;;
13720;SDS011;6932;51.438;5.470;2023-08-07T10:36:34;3.50;;;1.40;;
13720;SDS011;6932;51.438;5.470;2023-08-07T10:39:07;3.70;;;1.53;;
13720;SDS011;6932;51.438;5.470;2023-08-07T10:41:39;4.47;;;1.40;;
13720;SDS011;6932;51.438;5.470;2023-08-07T10:44:20;3.23;;;1.40;;
13720;SDS011;6932;51.438;5.470;2023-08-07T10:46:48;4.67;;;1.50;;
13720;SDS011;6932;51.438;5.470;2023-08-07T10:49:42;3.27;;;1.60;;
13720;SDS011;6932;51.438;5.470;2023-08-07T10:52:08;3.43;;;1.60;;
13720;SDS011;6932;51.438;5.470;2023-08-07T10:57:14;3.13;;;1.60;;
13720;SDS011;6932;51.438;5.470;2023-08-07T10:59:51;3.90;;;1.57;;
13720;SDS011;6932;51.438;5.470;2023-08-07T11:02:31;2.73;;;1.40;;
13720;SDS011;6932;51.438;5.470;2023-08-07T11:05:01;4.93;;;1.70;;
13720;SDS011;6932;51.438;5.470;2023-08-07T11:07:29;3.87;;;1.47;;
13720;SDS011;6932;51.438;5.470;2023-08-07T11:09:56;4.17;;;1.50;;
13720;SDS011;6932;51.438;5.470;2023-08-07T11:12:27;4.40;;;1.40;;
13720;SDS011;6932;51.438;5.470;2023-08-07T11:14:57;2.77;;;1.30;;
13720;SDS011;6932;51.438;5.470;2023-08-07T11:17:24;4.20;;;1.53;;
13720;SDS011;6932;51.438;5.470;2023-08-07T11:19:51;3.50;;;1.70;;
13720;SDS011;6932;51.438;5.470;2023-08-07T11:22:19;4.13;;;1.63;;
13720;SDS011;6932;51.438;5.470;2023-08-07T11:24:46;5.63;;;1.60;;
13720;SDS011;6932;51.438;5.470;2023-08-07T11:27:12;4.83;;;1.60;;
13720;SDS011;6932;51.438;5.470;2023-08-07T11:29:38;2.67;;;1.70;;
13720;SDS011;6932;51.438;5.470;2023-08-07T11:32:04;4.60;;;1.60;;
13720;SDS011;6932;51.438;5.470;2023-08-07T11:34:31;3.87;;;1.80;;
13720;SDS011;6932;51.438;5.470;2023-08-07T11:36:57;2.87;;;1.50;;
13720;SDS011;6932;51.438;5.470;2023-08-07T11:39:23;3.67;;;1.67;;
13720;SDS011;6932;51.438;5.470;2023-08-07T11:41:52;4.03;;;1.60;;
13720;SDS011;6932;51.438;5.470;2023-08-07T11:44:18;4.73;;;1.70;;
13720;SDS011;6932;51.438;5.470;2023-08-07T11:46:44;1.97;;;1.40;;
13720;SDS011;6932;51.438;5.470;2023-08-07T11:49:10;3.17;;;1.67;;
13720;SDS011;6932;51.438;5.470;2023-08-07T11:51:38;2.60;;;1.60;;
13720;SDS011;6932;51.438;5.470;2023-08-07T11:54:04;3.97;;;1.80;;
13720;SDS011;6932;51.438;5.470;2023-08-07T11:56:29;3.60;;;1.90;;
13720;SDS011;6932;51.438;5.470;2023-08-07T11:58:56;4.33;;;2.00;;
13720;SDS011;6932;51.438;5.470;2023-08-07T12:01:24;4.67;;;1.80;;
13720;SDS011;6932;51.438;5.470;2023-08-07T12:06:33;4.73;;;1.77;;
13720;SDS011;6932;51.438;5.470;2023-08-07T12:09:00;4.20;;;1.80;;
13720;SDS011;6932;51.438;5.470;2023-08-07T12:11:30;4.87;;;1.70;;
13720;SDS011;6932;51.438;5.470;2023-08-07T12:13:59;4.43;;;2.00;;
13720;SDS011;6932;51.438;5.470;2023-08-07T12:16:32;4.80;;;1.70;;
13720;SDS011;6932;51.438;5.470;2023-08-07T12:18:59;4.97;;;1.73;;
13720;SDS011;6932;51.438;5.470;2023-08-07T12:21:27;3.50;;;1.80;;
13720;SDS011;6932;51.438;5.470;2023-08-07T12:23:56;4.07;;;2.00;;
13720;SDS011;6932;51.438;5.470;2023-08-07T12:26:22;5.47;;;2.03;;
13720;SDS011;6932;51.438;5.470;2023-08-07T12:28:48;3.80;;;1.90;;
13720;SDS011;6932;51.438;5.470;2023-08-07T12:31:14;5.07;;;1.77;;
13720;SDS011;6932;51.438;5.470;2023-08-07T12:33:42;4.70;;;1.97;;
13720;SDS011;6932;51.438;5.470;2023-08-07T12:36:08;4.40;;;2.03;;
13720;SDS011;6932;51.438;5.470;2023-08-07T12:38:35;3.10;;;1.83;;
13720;SDS011;6932;51.438;5.470;2023-08-07T12:41:01;4.97;;;1.97;;
13720;SDS011;6932;51.438;5.470;2023-08-07T12:43:28;3.13;;;1.70;;
13720;SDS011;6932;51.438;5.470;2023-08-07T12:45:54;4.80;;;2.10;;
13720;SDS011;6932;51.438;5.470;2023-08-07T12:48:19;3.43;;;1.87;;
13720;SDS011;6932;51.438;5.470;2023-08-07T12:50:45;5.00;;;1.77;;
13720;SDS011;6932;51.438;5.470;2023-08-07T12:53:11;4.60;;;1.90;;
13720;SDS011;6932;51.438;5.470;2023-08-07T12:55:37;6.53;;;2.13;;
13720;SDS011;6932;51.438;5.470;2023-08-07T12:58:02;4.57;;;1.87;;
13720;SDS011;6932;51.438;5.470;2023-08-07T13:00:28;4.50;;;2.00;;
13720;SDS011;6932;51.438;5.470;2023-08-07T13:02:54;2.87;;;1.60;;
13720;SDS011;6932;51.438;5.470;2023-08-07T13:05:21;3.63;;;1.90;;
13720;SDS011;6932;51.438;5.470;2023-08-07T13:07:47;3.07;;;1.60;;
13720;SDS011;6932;51.438;5.470;2023-08-07T13:10:15;5.17;;;1.90;;
13720;SDS011;6932;51.438;5.470;2023-08-07T13:12:43;3.93;;;1.80;;
13720;SDS011;6932;51.438;5.470;2023-08-07T13:15:12;5.10;;;2.00;;
13720;SDS011;6932;51.438;5.470;2023-08-07T13:17:40;4.80;;;1.90;;
13720;SDS011;6932;51.438;5.470;2023-08-07T13:20:07;4.70;;;1.90;;
13720;SDS011;6932;51.438;5.470;2023-08-07T13:22:36;4.30;;;2.10;;
13720;SDS011;6932;51.438;5.470;2023-08-07T13:25:02;5.80;;;2.17;;
13720;SDS011;6932;51.438;5.470;2023-08-07T13:27:30;2.80;;;1.87;;
13720;SDS011;6932;51.438;5.470;2023-08-07T13:30:00;3.13;;;1.90;;
13720;SDS011;6932;51.438;5.470;2023-08-07T13:32:28;4.70;;;2.10;;
13720;SDS011;6932;51.438;5.470;2023-08-07T13:34:54;4.27;;;1.77;;
13720;SDS011;6932;51.438;5.470;2023-08-07T13:37:20;4.57;;;2.00;;
13720;SDS011;6932;51.438;5.470;2023-08-07T13:39:46;5.47;;;1.80;;
13720;SDS011;6932;51.438;5.470;2023-08-07T13:42:14;3.33;;;1.73;;
13720;SDS011;6932;51.438;5.470;2023-08-07T13:44:40;2.17;;;1.63;;
13720;SDS011;6932;51.438;5.470;2023-08-07T13:47:06;3.50;;;1.67;;
13720;SDS011;6932;51.438;5.470;2023-08-07T13:49:32;3.80;;;1.70;;
13720;SDS011;6932;51.438;5.470;2023-08-07T13:51:58;2.37;;;1.60;;
13720;SDS011;6932;51.438;5.470;2023-08-07T13:54:24;6.30;;;1.87;;
13720;SDS011;6932;51.438;5.470;2023-08-07T13:56:50;3.53;;;1.60;;
13720;SDS011;6932;51.438;5.470;2023-08-07T13:59:16;4.60;;;1.90;;
13720;SDS011;6932;51.438;5.470;2023-08-07T14:01:42;4.00;;;1.80;;
13720;SDS011;6932;51.438;5.470;2023-08-07T14:04:08;2.37;;;1.40;;
13720;SDS011;6932;51.438;5.470;2023-08-07T14:06:33;2.43;;;1.70;;
13720;SDS011;6932;51.438;5.470;2023-08-07T14:08:59;3.63;;;1.80;;
13720;SDS011;6932;51.438;5.470;2023-08-07T14:11:25;3.33;;;1.80;;
13720;SDS011;6932;51.438;5.470;2023-08-07T14:13:58;2.87;;;1.57;;
13720;SDS011;6932;51.438;5.470;2023-08-07T14:16:27;2.30;;;1.40;;
13720;SDS011;6932;51.438;5.470;2023-08-07T14:18:53;1.40;;;1.30;;
13720;SDS011;6932;51.438;5.470;2023-08-07T14:21:19;1.63;;;1.23;;
13720;SDS011;6932;51.438;5.470;2023-08-07T14:23:44;1.67;;;1.33;;
13720;SDS011;6932;51.438;5.470;2023-08-07T14:26:12;2.43;;;1.30;;
13720;SDS011;6932;51.438;5.470;2023-08-07T14:28:38;1.77;;;1.40;;
13720;SDS011;6932;51.438;5.470;2023-08-07T14:31:07;1.30;;;1.13;;
13720;SDS011;6932;51.438;5.470;2023-08-07T14:33:34;2.90;;;1.40;;
13720;SDS011;6932;51.438;5.470;2023-08-07T14:36:01;2.90;;;1.50;;
13720;SDS011;6932;51.438;5.470;2023-08-07T14:38:27;3.10;;;1.67;;
13720;SDS011;6932;51.438;5.470;2023-08-07T14:40:54;2.53;;;1.50;;
13720;SDS011;6932;51.438;5.470;2023-08-07T14:43:20;3.07;;;1.67;;
13720;SDS011;6932;51.438;5.470;2023-08-07T14:45:47;5.57;;;1.67;;
13720;SDS011;6932;51.438;5.470;2023-08-07T14:48:16;2.50;;;1.50;;
13720;SDS011;6932;51.438;5.470;2023-08-07T14:50:41;2.70;;;1.53;;
13720;SDS011;6932;51.438;5.470;2023-08-07T14:53:07;2.60;;;1.50;;
13720;SDS011;6932;51.438;5.470;2023-08-07T14:55:33;3.13;;;1.50;;
13720;SDS011;6932;51.438;5.470;2023-08-07T14:57:59;3.53;;;1.50;;
13720;SDS011;6932;51.438;5.470;2023-08-07T15:00:24;2.60;;;1.20;;
13720;SDS011;6932;51.438;5.470;2023-08-07T15:02:50;2.17;;;1.10;;
13720;SDS011;6932;51.438;5.470;2023-08-07T15:05:16;2.50;;;1.20;;
13720;SDS011;6932;51.438;5.470;2023-08-07T15:07:42;2.80;;;1.33;;
13720;SDS011;6932;51.438;5.470;2023-08-07T15:10:08;1.83;;;1.13;;
13720;SDS011;6932;51.438;5.470;2023-08-07T15:12:34;3.63;;;1.33;;